Etusivu
METAR-TAF:

METAR-TAF

Lentoasemat :

Karup, Tanska

Leveyspiiri: 56-18N, Pituuspiiri: 009-07E, korkeus merenpinnasta: 52 m

Tämänhetkinen sää

Tämä raportti tehtiin 44 minuuttia sitten, kello 23.20 UTC
Tuuli 2 kn etelästä/lounaasta
Lämpötila 13°C
Kosteus 94%
Ilmanpaine 1018 hPa
Näkyvyys 10 km tai enemmän

METAR: EKKA 192320Z AUTO 20002KT 9999 NCD 13/12 Q1018

Aika: 02:04 (00:04 UTC)

Sääennuste

Tämä raportti tehtiin 1 tunti ja 3 minuuttia sitten, kello 23.01 UTC
Ennuste voimassa 20. päivästä klo 00 UTC - 20. päivään klo 24 UTC
Tuuli 3 kn eri suunnista
Näkyvyys 10 km tai enemmän
Muutamia pilviä 4000 ft:n korkeudessa
Todennäköisyys 40%
20. päivästä klo 02 UTC - 20. päivään klo 05 UTC
Näkyvyys: 2500 m
sumuhattaroita, utua
Tulossa
20. päivästä klo 06 UTC - 20. päivään klo 09 UTC
Tuuli 10 kn kaakosta

TAF: EKKA 192301Z 2000/2024 VRB03KT 9999 FEW040 PROB40 2002/2005 2500 BCFG BR BECMG 2006/2009 14010KT

Säähavainnot ja -ennusteet yli 4000 lentoasemalta (METAR- ja TAF-raportit).

Käytössä olevat sääasemat on merkitty karttaan keltaisilla ja punaisilla pisteillä.

Aseta hiiri pisteen päälle nähdäksesi sääaseman nimen.

Klikkaa sitten nähdäksesi säähavainnot ja -ennusteet.

Kartan vaihtaminen: klikkaa mustalla rastilla varustettuja vihreitä pisteitä, niin voit zoomata sisään; viivalla varustettua vihreää pistettä, niin voit zoomata ulos tai vihreitä nuolia, niin pääset viereisille kartoille.


METAR-TAF: